Pagrindinis puslapis
METAR-TAF:

METAR-TAF

Oro uostai :

Gioia del Colle, Italija

platuma: 40-46N, ilguma: 016-56E, Aukštis: 345 m

Dabartinis oras

Ataskaita buvo paskelbta 45 minutes, ne 02:55 UTC
Vėjas 4 kt iš Pietų/Pietryčių
Temperatūra 2°C
Drėgmė 100%
Slėgis 1023 hPa
Matomumas: 4500 m
rūkana

METAR: LIBV 180255Z 16004KT 4500 BR NSC 02/02 Q1023 RMK SKC VIS MIN 3500SW WIND THR32 VRB02KT WIND THR14 16004KT YLO

Laikas: 04:40 (03:40 UTC)

Prognozė

Ataskaita buvo paskelbta 1 valandą ir 40 minutes, ne 02:00 UTC
Prognozė galioja nuo 18 metu 03 UTC su 18 metu 12 UTC
Vėjas 3 kt nuo kintamojo kryptimis
Matomumas: 4500 m
rūkana
Tapsmas
nuo 18 metu 05 UTC su 18 metu 06 UTC
Vėjas 5 kt iš Pietų
Matomumas 10 km arba daugiau
nėra debesų žemiau 1500 m ir nėra kamuolinių lietaus debesų

TAF: LIBV 180200Z 1803/1812 VRB03KT 4500 BR NSC BECMG 1805/1806 19005KT CAVOK

Orai ataskaitas ir orų prognozės (METAR, TAF).

turimą stotys yra geltonos ir raudonos taškus žemėlapyje.

Perkelti pele per norėdami pamatyti stoties vardą.

Tada spustelėkite, norėdami matyti oro stebėjimo ir prognozės.

Norėdami pakeisti žemėlapį: spustelėkite ant žalios mygtukų su juodo kryžiaus žemyn,; žalią mygtuką su brūkšneliu, jei norite nutolinti; arba žalių rodyklių gretimoms žemėlapius.


METAR-TAF: